Sunbury, PA

1:31 PM EST on February 09, 2016 (GMT -0500)
KPASUNBU2 | | Change Station
CLOSE
Current Station
Personal Weather Station
Location: Sunbury, PA
Elevation: 508 ft
Nearby Weather Stations

Elev 508 ft 40.86 °N, 76.78 °W | Updated 2 days ago

Snow
Snow
33 °F
Feels Like 33 °F
N
3
Wind Variable Wind from South
Gusts mph

Today
High -- | Low -- °F
--% Chance of Precip.
Yesterday
High -- | Low -- °F
Precip. -- in
Pressure 29.54 in
Visibility 1.2 miles
Clouds Mostly Cloudy 2100 ft
Mostly Cloudy 2900 ft
Overcast 3400 ft
Dew Point 28 °F
Humidity 81%
Rainfall in
Snow Depth Not available.
7:09 AM 5:33 PM
New Moon, 2% visible
SPECI KSEG 091804Z AUTO 00000KT 1 1/4SM -SN BR BKN021 BKN029 OVC034 00/M02 A2954 RMK AO2 P0000 T00001017
Pressure 29.54 in
Visibility 1.2 miles
Clouds Mostly Cloudy 2100 ft
Mostly Cloudy 2900 ft
Overcast 3400 ft
Dew Point 28 °F
Humidity 81%
Rainfall in
Snow Depth Not available.
7:09 AM 5:33 PM
New Moon, 2% visible
SPECI KSEG 091804Z AUTO 00000KT 1 1/4SM -SN BR BKN021 BKN029 OVC034 00/M02 A2954 RMK AO2 P0000 T00001017

10-Day Weather Forecast

Almanac

Astronomy

Feb. 09, 2016 Rise Set
Actual Time
Civil Twilight
Nautical Twilight
Astronomical Twilight
Moon
Length of Visible Light
Length of Day
Tomorrow will be .
, % of the Moon is Illuminated

Today's Extremes

State Highs State Lows

Community

WunderPhotos

Upload Photos

1,891,656 photos uploaded!

WunderBlog® & News

Nearby

Air Quality

  Air Quality AQ Index Pollutant
Not available.

Snow Depth

Station Depth Elevation

Earthquake Activity

City Distance Mag. Time & Date
Minimum magnitude displayed is 2.5.

Coastal Water Temperatures

Place Temperature

Stations

Nearby Weather Stations

Station Location Temp. Windchill Dew Point Humidity Wind Precip. Elev Updated Type
                   

Watches & Warnings

There are currently no watches in effect.